Redings Mill, Missouri
Current Conditions -  °F | °C
As of 12:53 AM on Friday 28 Nov 2014 (Local Time) from KJLN Reporting Station
Clear Clear  
Wind Chill: -3°   Ceiling: Unl
Heat Index:   Visibility: 10mi
Dew Point: -5°   Wind: 8mph
Humidity: 64%   Direction: 170°S
Pressure: 30.26"   Gusts: NA
Location:  37.1074°N, 94.5218°W
Report Text: KJLN 280653Z AUTO 17007KT 10SM CLR 01/M05 A3026 RMK AO2 SLP252 T00111050
Loading
Personal Weather Stations






























Interactive Weather Map New forecast layout! Learn more

10-Day Weather Forecast

Advertisements
Track Severe Weather on mobile